createdAt,value
2022-07-26T00:00:50.697Z,11.60
2022-07-26T00:03:54.971Z,12.00
2022-07-26T00:06:58.940Z,10.35
2022-07-26T00:10:04.924Z,12.15
2022-07-26T00:13:09.508Z,12.68
2022-07-26T00:16:14.145Z,10.73
2022-07-26T00:19:18.441Z,12.52
2022-07-26T00:22:34.370Z,10.27
2022-07-26T00:25:38.223Z,12.38
2022-07-26T00:28:43.083Z,11.98
2022-07-26T00:31:47.066Z,11.55
2022-07-26T00:34:51.737Z,10.60
2022-07-26T00:37:55.672Z,13.27
2022-07-26T00:41:00.788Z,13.90
2022-07-26T00:44:05.447Z,12.95
2022-07-26T00:47:09.967Z,12.00
2022-07-26T00:50:16.811Z,9.55
2022-07-26T00:53:22.730Z,9.68
2022-07-26T00:56:27.407Z,13.32
2022-07-26T00:59:31.745Z,10.90
2022-07-26T01:02:36.016Z,9.40
2022-07-26T01:05:40.021Z,9.65
2022-07-26T01:08:44.256Z,10.10
2022-07-26T01:11:50.252Z,9.80
2022-07-26T01:14:54.427Z,9.00
2022-07-26T01:17:58.680Z,9.30
2022-07-26T01:21:09.653Z,9.50
2022-07-26T01:24:18.709Z,15.68
2022-07-26T01:27:22.660Z,11.98
2022-07-26T01:30:27.049Z,11.50
2022-07-26T01:33:32.441Z,8.77
2022-07-26T01:36:36.205Z,11.13
2022-07-26T01:39:45.698Z,10.60
2022-07-26T01:42:49.839Z,12.35
2022-07-26T01:45:54.149Z,10.88
2022-07-26T01:48:58.470Z,9.98
2022-07-26T01:52:02.337Z,10.13
2022-07-26T01:55:06.417Z,10.98
2022-07-26T01:58:10.527Z,11.60
2022-07-26T02:01:14.849Z,13.35
2022-07-26T02:04:37.483Z,11.93
2022-07-26T02:07:44.643Z,11.30
2022-07-26T02:11:03.339Z,10.93
2022-07-26T02:14:08.306Z,11.57
2022-07-26T02:17:12.645Z,10.88
2022-07-26T02:20:17.150Z,11.25
2022-07-26T02:23:22.243Z,11.02
2022-07-26T02:26:26.351Z,10.45
2022-07-26T02:29:31.535Z,11.52
2022-07-26T02:32:35.176Z,9.73
2022-07-26T02:35:39.764Z,10.43
2022-07-26T02:38:44.131Z,10.23
2022-07-26T02:41:49.196Z,10.63
2022-07-26T02:44:54.108Z,11.98
2022-07-26T02:47:58.115Z,10.07
2022-07-26T02:51:02.247Z,13.40
2022-07-26T02:54:06.645Z,12.13
2022-07-26T02:57:10.878Z,12.02
2022-07-26T03:00:21.268Z,12.00
2022-07-26T03:03:25.610Z,10.57
2022-07-26T03:06:29.702Z,12.63
2022-07-26T03:09:33.944Z,10.60
2022-07-26T03:12:37.986Z,11.07
2022-07-26T03:15:42.112Z,15.02
2022-07-26T03:18:46.387Z,12.55
2022-07-26T03:21:50.385Z,11.73
2022-07-26T03:24:54.573Z,8.73
2022-07-26T03:27:58.816Z,12.43
2022-07-26T03:31:03.509Z,12.50
2022-07-26T03:34:08.196Z,10.38
2022-07-26T03:37:12.346Z,8.98
2022-07-26T03:40:16.912Z,13.73
2022-07-26T03:43:23.191Z,7.35
2022-07-26T03:46:28.339Z,11.10
2022-07-26T03:49:32.639Z,9.30
2022-07-26T03:52:36.926Z,11.00
2022-07-26T03:55:59.819Z,10.50
2022-07-26T03:59:07.022Z,11.27
2022-07-26T04:02:10.983Z,10.93
2022-07-26T04:05:15.472Z,11.85
2022-07-26T04:08:19.907Z,10.02
2022-07-26T04:11:26.545Z,10.05
2022-07-26T04:14:32.853Z,8.38
2022-07-26T04:17:41.202Z,11.23
2022-07-26T04:20:45.472Z,8.63
2022-07-26T04:23:51.512Z,11.52
2022-07-26T04:26:55.552Z,13.27
2022-07-26T04:29:59.643Z,10.27
2022-07-26T04:33:04.413Z,13.68
2022-07-26T04:36:10.069Z,13.23
2022-07-26T04:39:14.551Z,9.63
2022-07-26T04:42:18.491Z,8.25
2022-07-26T04:45:22.548Z,11.05
2022-07-26T04:48:26.934Z,10.05
2022-07-26T04:51:31.168Z,8.50
2022-07-26T04:54:35.214Z,12.52
2022-07-26T04:57:39.536Z,8.90
2022-07-26T05:04:09.959Z,10.48
2022-07-26T05:07:14.336Z,9.48
2022-07-26T05:10:20.495Z,11.07
2022-07-26T05:13:29.808Z,15.98
2022-07-26T05:16:34.695Z,13.05
2022-07-26T05:19:47.546Z,13.93
2022-07-26T05:22:52.911Z,18.33
2022-07-26T05:25:57.128Z,7.82
2022-07-26T05:29:01.612Z,14.68
2022-07-26T05:32:06.136Z,12.18
2022-07-26T05:35:10.231Z,9.70
2022-07-26T05:38:14.165Z,9.88
2022-07-26T05:41:18.315Z,8.38
2022-07-26T05:44:24.555Z,18.63
2022-07-26T05:47:30.824Z,20.25
2022-07-26T05:50:35.023Z,11.10
2022-07-26T05:53:39.326Z,11.35
2022-07-26T05:56:43.261Z,17.35
2022-07-26T05:59:47.455Z,10.55
2022-07-26T06:02:51.759Z,9.50
2022-07-26T06:05:58.073Z,11.85
2022-07-26T06:09:02.006Z,11.18
2022-07-26T06:12:06.516Z,16.40
2022-07-26T06:15:14.907Z,9.25
2022-07-26T06:18:20.022Z,13.43
2022-07-26T06:21:24.217Z,9.05
2022-07-26T06:24:28.937Z,9.93
2022-07-26T06:27:32.950Z,10.68
2022-07-26T06:30:38.613Z,9.18
2022-07-26T06:33:42.715Z,10.40
2022-07-26T06:36:47.205Z,12.88
2022-07-26T06:39:51.073Z,10.32
2022-07-26T06:42:55.276Z,10.60
2022-07-26T06:45:59.180Z,7.97
2022-07-26T06:49:03.962Z,12.25
2022-07-26T06:52:10.318Z,7.47
2022-07-26T06:55:14.789Z,6.90
2022-07-26T06:58:19.149Z,9.40
2022-07-26T07:01:58.434Z,11.25
2022-07-26T07:04:48.055Z,11.98
2022-07-26T07:07:52.339Z,7.53
2022-07-26T07:10:58.609Z,11.32
2022-07-26T07:14:03.370Z,10.55
2022-07-26T07:17:11.245Z,8.63
2022-07-26T07:20:18.222Z,10.05
2022-07-26T07:23:23.195Z,11.15
2022-07-26T07:26:27.346Z,7.70
2022-07-26T07:29:31.700Z,14.52
2022-07-26T07:32:35.715Z,12.90
2022-07-26T07:35:40.357Z,7.32
2022-07-26T07:38:45.557Z,9.05
2022-07-26T07:41:49.546Z,8.30
2022-07-26T07:44:53.789Z,6.70
2022-07-26T07:47:57.900Z,7.93
2022-07-26T07:51:02.246Z,6.97
2022-07-26T07:54:06.697Z,7.95
2022-07-26T07:57:11.068Z,8.32
2022-07-26T08:00:19.524Z,4.60
2022-07-26T08:03:38.104Z,6.75
2022-07-26T08:06:50.281Z,5.28
2022-07-26T08:09:55.681Z,9.73
2022-07-26T08:13:01.108Z,12.23
2022-07-26T08:16:06.138Z,9.70
2022-07-26T08:19:14.233Z,7.57
2022-07-26T08:22:19.704Z,7.43
2022-07-26T08:25:26.313Z,5.85
2022-07-26T08:28:46.864Z,7.00
2022-07-26T08:31:52.876Z,8.90
2022-07-26T08:34:57.215Z,8.45
2022-07-26T08:38:21.645Z,5.05
2022-07-26T08:41:26.034Z,6.53
2022-07-26T08:44:30.940Z,7.13
2022-07-26T08:47:35.290Z,7.35
2022-07-26T08:50:44.268Z,8.40
2022-07-26T08:53:49.176Z,8.48
2022-07-26T08:56:53.620Z,6.75
2022-07-26T09:00:18.248Z,8.73
2022-07-26T09:03:26.280Z,7.30
2022-07-26T09:06:30.624Z,5.05
2022-07-26T09:09:59.937Z,6.20
2022-07-26T09:13:04.068Z,7.32
2022-07-26T09:16:12.215Z,5.18
2022-07-26T09:19:17.658Z,9.18
2022-07-26T09:22:21.837Z,6.18
2022-07-26T09:25:27.447Z,4.38
2022-07-26T09:28:31.879Z,5.70
2022-07-26T09:31:36.975Z,6.78
2022-07-26T09:34:51.794Z,6.90
2022-07-26T09:37:56.571Z,5.53
2022-07-26T09:41:00.603Z,9.07
2022-07-26T09:44:07.168Z,7.63
2022-07-26T09:47:11.544Z,5.78
2022-07-26T09:50:28.016Z,6.22
2022-07-26T09:53:44.806Z,5.70
2022-07-26T09:56:51.181Z,7.97
2022-07-26T09:59:55.455Z,7.63
2022-07-26T10:03:00.551Z,3.95
2022-07-26T10:06:04.826Z,5.85
2022-07-26T10:09:09.513Z,5.45
2022-07-26T10:12:16.603Z,6.90
2022-07-26T10:15:47.658Z,13.38
2022-07-26T10:18:52.446Z,7.22
2022-07-26T10:22:22.361Z,7.13
2022-07-26T10:25:26.264Z,8.13
2022-07-26T10:28:32.610Z,5.75
2022-07-26T10:31:36.668Z,5.47
2022-07-26T10:34:41.720Z,3.38
2022-07-26T10:37:59.703Z,4.40
2022-07-26T10:41:08.996Z,4.70
2022-07-26T10:44:20.357Z,3.67
2022-07-26T10:47:24.613Z,2.80
2022-07-26T10:50:35.505Z,5.10
2022-07-26T10:53:39.507Z,6.65
2022-07-26T10:56:43.824Z,3.60
2022-07-26T10:59:55.797Z,4.85
2022-07-26T11:03:00.687Z,5.37
2022-07-26T11:06:18.766Z,3.47
2022-07-26T11:09:23.588Z,3.65
2022-07-26T11:12:27.775Z,4.07
2022-07-26T11:15:32.140Z,7.82
2022-07-26T11:18:38.843Z,6.72
2022-07-26T11:21:44.660Z,9.18
2022-07-26T11:24:48.598Z,8.05
2022-07-26T11:28:21.282Z,5.25
2022-07-26T11:31:50.652Z,8.10
2022-07-26T11:35:03.316Z,4.13
2022-07-26T11:38:12.280Z,5.05
2022-07-26T11:41:34.298Z,5.20
2022-07-26T11:44:43.445Z,6.38
2022-07-26T11:47:47.596Z,3.13
2022-07-26T11:50:51.708Z,4.35
2022-07-26T11:53:59.759Z,3.35
2022-07-26T11:57:05.028Z,3.67
2022-07-26T12:00:10.068Z,4.35
2022-07-26T12:03:14.538Z,5.47
2022-07-26T12:06:22.280Z,4.80
2022-07-26T12:09:32.837Z,5.07
2022-07-26T12:12:36.866Z,3.50
2022-07-26T12:15:52.686Z,5.38
2022-07-26T12:18:57.008Z,5.72
2022-07-26T12:22:22.336Z,6.03
2022-07-26T12:25:27.832Z,3.65
2022-07-26T12:28:41.936Z,6.75
2022-07-26T12:31:46.569Z,4.28
2022-07-26T12:35:07.449Z,5.85
2022-07-26T12:38:12.747Z,7.53
2022-07-26T12:41:37.380Z,6.70
2022-07-26T12:44:41.410Z,6.13
2022-07-26T12:47:48.103Z,4.68
2022-07-26T12:50:51.719Z,5.22
2022-07-26T12:53:55.695Z,4.20
2022-07-26T12:56:59.890Z,5.15
2022-07-26T13:00:06.684Z,3.67
2022-07-26T13:03:11.055Z,4.18
2022-07-26T13:06:15.017Z,7.72
2022-07-26T13:09:19.318Z,4.25
2022-07-26T13:12:23.775Z,6.55
2022-07-26T13:15:35.082Z,6.03
2022-07-26T13:18:40.644Z,7.10
2022-07-26T13:21:50.536Z,7.68
2022-07-26T13:24:56.851Z,5.40
2022-07-26T13:28:05.120Z,6.97
2022-07-26T13:31:09.974Z,5.57
2022-07-26T13:34:15.522Z,8.05
2022-07-26T13:37:20.216Z,8.52
2022-07-26T13:40:28.938Z,6.03
2022-07-26T13:43:35.405Z,7.05
2022-07-26T13:46:39.588Z,8.60
2022-07-26T13:49:44.351Z,9.98
2022-07-26T13:52:48.683Z,5.60
2022-07-26T13:55:52.982Z,8.15
2022-07-26T13:58:57.219Z,6.38
2022-07-26T14:02:01.998Z,8.45
2022-07-26T14:05:06.542Z,7.28
2022-07-26T14:08:10.536Z,8.15
2022-07-26T14:11:14.771Z,14.70
2022-07-26T14:14:19.018Z,5.35
2022-07-26T14:17:23.231Z,7.75
2022-07-26T14:20:27.965Z,9.48
2022-07-26T14:23:31.928Z,7.75
2022-07-26T14:26:36.378Z,5.72
2022-07-26T14:29:41.193Z,7.22
2022-07-26T14:32:45.454Z,8.90
2022-07-26T14:35:49.818Z,4.80
2022-07-26T14:38:55.486Z,7.32
2022-07-26T14:42:02.996Z,7.25
2022-07-26T14:45:08.385Z,4.70
2022-07-26T14:48:12.078Z,7.78
2022-07-26T14:51:16.519Z,7.93
2022-07-26T14:54:21.053Z,5.55
2022-07-26T14:57:26.745Z,6.00
2022-07-26T15:00:30.659Z,6.55
2022-07-26T15:03:35.016Z,7.93
2022-07-26T15:06:39.328Z,13.30
2022-07-26T15:09:43.423Z,6.40
2022-07-26T15:12:47.545Z,6.40
2022-07-26T15:15:51.460Z,5.60
2022-07-26T15:18:55.712Z,11.95
2022-07-26T15:22:00.307Z,8.02
2022-07-26T15:25:05.167Z,10.93
2022-07-26T15:28:09.449Z,8.23
2022-07-26T15:31:13.676Z,5.10
2022-07-26T15:34:17.832Z,5.88
2022-07-26T15:37:22.192Z,9.13
2022-07-26T15:40:26.567Z,5.75
2022-07-26T15:43:43.941Z,8.82
2022-07-26T15:46:52.634Z,7.63
2022-07-26T15:49:56.682Z,4.32
2022-07-26T15:53:00.977Z,6.82
2022-07-26T15:56:05.198Z,4.25
2022-07-26T15:59:09.497Z,4.93
2022-07-26T16:02:14.319Z,4.72
2022-07-26T16:05:19.067Z,2.80
2022-07-26T16:08:23.820Z,6.25
2022-07-26T16:11:31.392Z,3.78
2022-07-26T16:14:35.685Z,3.20
2022-07-26T16:17:40.154Z,5.22
2022-07-26T16:20:44.098Z,5.82
2022-07-26T16:23:48.512Z,6.13
2022-07-26T16:26:53.150Z,5.80
2022-07-26T16:29:57.401Z,4.80
2022-07-26T16:33:01.564Z,7.05
2022-07-26T16:36:06.601Z,6.25
2022-07-26T16:39:11.639Z,6.93
2022-07-26T16:42:16.330Z,4.75
2022-07-26T16:45:20.302Z,8.23
2022-07-26T16:48:24.218Z,4.80
2022-07-26T16:51:28.333Z,6.20
2022-07-26T16:54:33.121Z,9.45
2022-07-26T16:57:38.692Z,9.75
2022-07-26T17:00:42.959Z,4.07
2022-07-26T17:03:47.137Z,8.07
2022-07-26T17:07:14.642Z,5.60
2022-07-26T17:10:15.845Z,8.23
2022-07-26T17:13:19.944Z,4.20
2022-07-26T17:16:24.711Z,3.85
2022-07-26T17:19:29.617Z,12.13
2022-07-26T17:22:34.133Z,9.77
2022-07-26T17:25:38.312Z,5.75
2022-07-26T17:28:42.235Z,5.07
2022-07-26T17:31:46.425Z,4.20
2022-07-26T17:34:51.872Z,4.72
2022-07-26T17:37:56.093Z,6.07
2022-07-26T17:41:00.616Z,6.03
2022-07-26T17:44:04.908Z,5.13
2022-07-26T17:47:28.458Z,5.97
2022-07-26T17:50:36.826Z,8.07
2022-07-26T17:53:49.797Z,7.07
2022-07-26T17:56:57.314Z,7.22
2022-07-26T18:00:06.200Z,5.22
2022-07-26T18:03:10.628Z,7.43
2022-07-26T18:06:15.183Z,5.72
2022-07-26T18:09:28.512Z,6.88
2022-07-26T18:12:33.921Z,3.63
2022-07-26T18:15:38.180Z,3.95
2022-07-26T18:18:43.451Z,2.22
2022-07-26T18:21:48.257Z,3.90
2022-07-26T18:24:55.560Z,3.55
2022-07-26T18:28:06.415Z,2.42
2022-07-26T18:31:11.586Z,4.20
2022-07-26T18:34:16.187Z,4.93
2022-07-26T18:37:21.053Z,6.47
2022-07-26T18:40:26.362Z,2.90
2022-07-26T18:43:30.697Z,4.80
2022-07-26T18:46:34.846Z,3.30
2022-07-26T18:49:38.932Z,2.80
2022-07-26T18:52:45.500Z,2.72
2022-07-26T18:55:50.137Z,5.15
2022-07-26T18:58:54.373Z,7.80
2022-07-26T19:02:00.332Z,2.45
2022-07-26T19:05:05.505Z,2.35
2022-07-26T19:08:09.607Z,4.53
2022-07-26T19:11:13.883Z,3.42
2022-07-26T19:14:18.594Z,5.72
2022-07-26T19:17:23.295Z,1.33
2022-07-26T19:20:27.403Z,3.50
2022-07-26T19:23:31.724Z,4.57
2022-07-26T19:26:36.136Z,3.20
2022-07-26T19:29:40.393Z,3.25
2022-07-26T19:32:44.750Z,4.15
2022-07-26T19:35:49.145Z,4.28
2022-07-26T19:38:54.391Z,3.03
2022-07-26T19:41:58.746Z,4.68
2022-07-26T19:45:02.802Z,1.40
2022-07-26T19:48:07.773Z,3.67
2022-07-26T19:51:12.104Z,4.10
2022-07-26T19:54:16.302Z,4.63
2022-07-26T19:57:20.529Z,1.92
2022-07-26T20:00:24.955Z,3.10
2022-07-26T20:03:29.337Z,5.93
2022-07-26T20:06:33.639Z,2.78
2022-07-26T20:09:37.714Z,3.65
2022-07-26T20:12:42.747Z,4.18
2022-07-26T20:15:49.395Z,4.97
2022-07-26T20:18:53.585Z,4.65
2022-07-26T20:21:58.762Z,9.15
2022-07-26T20:25:03.067Z,2.80
2022-07-26T20:28:06.962Z,2.83
2022-07-26T20:31:11.377Z,3.78
2022-07-26T20:34:15.585Z,4.55
2022-07-26T20:37:19.943Z,3.63
2022-07-26T20:40:27.256Z,4.03
2022-07-26T20:43:32.181Z,6.55
2022-07-26T20:46:40.266Z,3.33
2022-07-26T20:49:44.519Z,3.83
2022-07-26T20:52:49.223Z,4.10
2022-07-26T20:55:53.181Z,6.38
2022-07-26T20:58:57.369Z,4.65
2022-07-26T21:02:01.690Z,6.25
2022-07-26T21:05:06.441Z,3.47
2022-07-26T21:08:10.720Z,4.57
2022-07-26T21:11:14.903Z,7.25
2022-07-26T21:14:19.743Z,3.20
2022-07-26T21:17:32.724Z,4.90
2022-07-26T21:20:39.066Z,3.80
2022-07-26T21:23:43.353Z,3.75
2022-07-26T21:26:47.701Z,7.38
2022-07-26T21:29:51.769Z,8.55
2022-07-26T21:32:55.938Z,3.97
2022-07-26T21:36:00.265Z,5.82
2022-07-26T21:39:04.643Z,4.68
2022-07-26T21:42:08.835Z,10.23
2022-07-26T21:45:12.877Z,5.00
2022-07-26T21:48:17.804Z,4.30
2022-07-26T21:51:22.056Z,7.97
2022-07-26T21:54:26.728Z,4.32
2022-07-26T21:57:30.572Z,7.22
2022-07-26T22:00:36.720Z,4.85
2022-07-26T22:03:41.609Z,3.83
2022-07-26T22:06:45.546Z,5.00
2022-07-26T22:09:49.705Z,4.32
2022-07-26T22:12:53.884Z,5.22
2022-07-26T22:15:58.114Z,4.75
2022-07-26T22:19:02.265Z,6.00
2022-07-26T22:22:06.911Z,3.95
2022-07-26T22:25:11.311Z,4.22
2022-07-26T22:28:17.995Z,3.70
2022-07-26T22:31:23.150Z,4.10
2022-07-26T22:34:27.321Z,4.78
2022-07-26T22:37:31.362Z,6.97
2022-07-26T22:40:36.269Z,7.63
2022-07-26T22:43:40.637Z,5.78
2022-07-26T22:46:44.819Z,4.60
2022-07-26T22:49:48.828Z,4.40
2022-07-26T22:52:52.817Z,6.70
2022-07-26T22:55:56.888Z,7.95
2022-07-26T22:59:01.209Z,4.28
2022-07-26T23:02:05.423Z,6.28
2022-07-26T23:05:10.464Z,7.03
2022-07-26T23:08:46.596Z,8.23
2022-07-26T23:11:39.403Z,5.80
2022-07-26T23:14:43.763Z,6.93
2022-07-26T23:17:48.141Z,5.85
2022-07-26T23:20:52.554Z,5.80
2022-07-26T23:23:56.947Z,7.45
2022-07-26T23:27:01.216Z,6.88
2022-07-26T23:30:05.834Z,6.28
2022-07-26T23:33:09.960Z,5.60
2022-07-26T23:36:14.341Z,7.45
2022-07-26T23:39:18.727Z,5.93
2022-07-26T23:42:22.840Z,8.20
2022-07-26T23:45:27.092Z,5.72
2022-07-26T23:48:31.638Z,8.00
2022-07-26T23:51:35.833Z,6.00
2022-07-26T23:54:40.076Z,8.85
2022-07-26T23:57:44.253Z,7.13
